Las horas y fechas están en horario UTC
Sumar 1 hora en el horario de Invierno y 2 horas en el de Verano

Informes METAR cercanos

 

LEZL - Sevilla (civ/Mil, Spain
Distance from station: NNE 24km
Actualización: 25/03/2019 06:00
Despejado
Despejado
 Viento del ENE
Viento: ENE 13 km/h
Temperatura: 12°C
Rocío: 8°C
Humedad: 77%
Barómetro: 1018 hPa
Resumen: Despejado
Visibility: greater than 10 km
2019/03/25 05:00 LEZL 250500Z 06007KT CAVOK 12/08 Q1018 NOSIG
LEMO - Moron (sp-Usafb), Spain
Distance from station: E 38km
Actualización: 25/03/2019 06:00
Despejado
Despejado
 Viento del E
Viento: E 9 km/h
Temperatura: 10°C
Wind Chill: 9°C
Rocío: 6°C
Humedad: 76%
Barómetro: 1018 hPa
Resumen: Despejado
Visibility: greater than 10 km
2019/03/25 05:00 LEMO 250500Z 08005KT CAVOK 10/06 Q1018 NOSIG
LEJR - Jerez (civ/Mil), Spain
Distance from station: S 53km
Actualización: 25/03/2019 06:00
Despejado
Despejado
 Viento del N
Viento: N 11 km/h
Temperatura: 9°C
Wind Chill: 7°C
Rocío: 6°C
Humedad: 82%
Barómetro: 1017 hPa
Resumen: Despejado
Visibility: greater than 10 km
2019/03/25 05:00 LEJR 250500Z 36006KT CAVOK 09/06 Q1017
 
LERT - Rota Naval Stati, Spain
Distance from station: SSO 71km
Actualización: 25/03/2019 06:00
Few Clouds
Few Clouds
 Viento del NE
Viento: NE 6 km/h
Temperatura: 10°C
Rocío: 5°C
Humedad: 71%
Barómetro: 1017 hPa
Clouds: Few Clouds
Visibility: 10 km
Cloud details: Few Clouds 1798 m
2019/03/25 05:00 LERT 250500Z 05003KT 020V080 9999 FEW059 10/05 Q1017 NOSIG
LEBA - Cordoba Airport, Spain
Distance from station: ENE 128km
Actualización: 25/03/2019 06:00

 Viento del varies
Viento: varies 0 km/h
2019/03/25 05:00 LEBA 250500Z AUTO /////KT //// R21///// ////// ///// Q////
LXGB - Gibraltar (civ/M, Gibraltar
Distance from station: SSE 137km
Actualización: 25/03/2019 05:50
Parcialmente nuboso
Parcialmente nuboso
 Viento del E
Viento: E 28 km/h
Temperatura: 15°C
Rocío: 14°C
Humedad: 94%
Barómetro: 1017 hPa
Clouds: Parcialmente nuboso
Visibility: 9 km
Cloud details: Few Clouds 457 m
Parcialmente nuboso 1433 m
2019/03/25 04:50 LXGB 250450Z AUTO 08015KT 9000 // FEW015/// SCT047/// 15/14 Q1017
 
LEMG - Malaga (civ/Mil), Spain
Distance from station: ESE 150km
Actualización: 25/03/2019 06:00
Few Clouds
Few Clouds
 Viento del ONO
Viento: ONO 15 km/h
Temperatura: 10°C
Wind Chill: 8°C
Rocío: 8°C
Humedad: 88%
Barómetro: 1019 hPa
Clouds: Few Clouds
Visibility: 10 km
Cloud details: Few Clouds 1067 m
2019/03/25 05:00 LEMG 250500Z 29008KT 9999 FEW035 10/08 Q1019 NOSIG
GMTT - Tangier/Boukhalf, Morocco
Distance from station: S 169km
Actualización: 25/03/2019 06:00
Few Clouds
Few Clouds
 Viento del E
Viento: E 31 km/h
Temperatura: 15°C
Rocío: 11°C
Humedad: 77%
Barómetro: 1014 hPa
Clouds: Few Clouds
Visibility: 10 km
Cloud details: Few Clouds 488 m
2019/03/25 05:00 GMTT 250500Z 09017KT 9999 FEW016 15/11 Q1014 NOSIG
LPFR - Faro, Portugal
Distance from station: O 172km
Actualización: 25/03/2019 06:00
Despejado
Despejado
 Viento del NNE
Viento: NNE 11 km/h
Temperatura: 14°C
Rocío: 9°C
Humedad: 72%
Barómetro: 1017 hPa
Resumen: Despejado
Visibility: greater than 10 km
2019/03/25 05:00 LPFR 250500Z 03006KT CAVOK 14/09 Q1017
 
LPBJ - Beja (por/Ger-Af, Portugal
Distance from station: ONO 192km
Actualización: 25/03/2019 06:00
Despejado
Despejado
 Viento del ENE
Viento: ENE 6 km/h
Temperatura: 9°C
Rocío: 8°C
Humedad: 94%
Barómetro: 1019 hPa
Resumen: Despejado
Visibility: greater than 10 km
2019/03/25 05:00 LPBJ 250500Z 07003KT CAVOK 09/08 Q1019
LEBZ - Talavera Ab/Bada, Spain
Distance from station: NNO 194km
Actualización: 24/03/2019 21:00
NOT Current
Few Clouds
Few Clouds
 Viento del E
Viento: E 6 km/h
Temperatura: 17°C
Rocío: 5°C
Humedad: 45%
Barómetro: 1019 hPa
Clouds: Few Clouds
Visibility: 10 km
Cloud details: Few Clouds 1372 m
2019/03/24 20:00 LEBZ 242000Z 10003KT 070V140 9999 FEW045 17/05 Q1019
LEMD - Madrid/Barajas, Spain
Distance from station: NE 415km
Actualización: 25/03/2019 06:00
Despejado
Despejado
 Viento del N
Viento: N 7 km/h
Temperatura: 6°C
Wind Chill: 4°C
Rocío: -1°C
Humedad: 61%
Barómetro: 1022 hPa
Resumen: Despejado
Visibility: greater than 10 km
2019/03/25 05:00 LEMD 250500Z 35004KT CAVOK 06/M01 Q1022 NOSIG